Time;durP1;ratioP1;P1;durP2;ratioP2;P2;SDS_P1;SDS_P2;PMS_P1;PMS_P2;Temp;Humidity;BMP_temperature;BMP_pressure;BME280_temperature;BME280_humidity;BME280_pressure;Samples;Min_cycle;Max_cycle;Signal;HPM_P1;HPM_P2
2022/05/27 00:02:22;;;;;;;7.50;3.77;;;;;;;11.06;80.74;94830.22;1642804;87;21492;-47
2022/05/27 00:04:49;;;;;;;4.33;3.70;;;;;;;11.05;80.42;94826.52;1642833;87;21047;-47
2022/05/27 00:07:17;;;;;;;6.35;4.28;;;;;;;11.04;80.43;94823.61;1643217;87;20941;-48
2022/05/27 00:09:44;;;;;;;5.95;3.75;;;;;;;11.03;80.46;94822.07;1628474;87;21159;-49
2022/05/27 00:12:11;;;;;;;5.10;3.92;;;;;;;11.05;80.35;94823.17;1608982;89;21064;-47
2022/05/27 00:14:38;;;;;;;6.10;4.00;;;;;;;11.07;80.42;94817.98;1608935;89;21124;-47
2022/05/27 00:17:05;;;;;;;6.35;4.20;;;;;;;11.07;80.40;94826.24;1609043;89;20994;-48
2022/05/27 00:19:31;;;;;;;11.15;4.40;;;;;;;11.10;80.67;94819.83;1608962;89;21096;-47
2022/05/27 00:21:58;;;;;;;8.30;4.30;;;;;;;11.17;80.53;94819.56;1609005;89;21796;-48
2022/05/27 00:24:25;;;;;;;8.88;4.20;;;;;;;11.22;80.43;94821.77;1608943;89;20978;-48
2022/05/27 00:26:52;;;;;;;7.45;4.00;;;;;;;11.25;80.48;94822.83;1609006;89;21073;-49
2022/05/27 00:29:18;;;;;;;4.15;3.77;;;;;;;11.26;80.56;94819.64;1609238;89;21517;-47
2022/05/27 00:31:45;;;;;;;4.10;3.70;;;;;;;11.31;80.43;94825.94;1609021;89;21025;-48
2022/05/27 00:34:13;;;;;;;4.72;4.30;;;;;;;11.33;80.31;94819.99;1633829;87;21270;-47
2022/05/27 00:36:40;;;;;;;10.00;3.98;;;;;;;11.38;80.52;94824.29;1608990;89;21088;-49
2022/05/27 00:39:06;;;;;;;5.03;4.00;;;;;;;11.39;80.44;94824.45;1608923;89;20981;-47
2022/05/27 00:41:33;;;;;;;7.25;4.28;;;;;;;11.43;80.31;94810.55;1609061;89;21001;-47
2022/05/27 00:44:00;;;;;;;6.05;3.47;;;;;;;11.49;80.16;94816.41;1608998;89;21029;-48
2022/05/27 00:46:29;;;;;;;5.97;4.10;;;;;;;11.55;79.75;94813.22;1608978;89;21214;-48
2022/05/27 00:49:05;;;;;;;7.87;4.30;;;;;;;11.56;79.45;94816.16;1609050;89;21025;-49
2022/05/27 00:51:34;;;;;;;6.80;3.90;;;;;;;11.55;79.36;94809.08;1608508;89;21033;-48
2022/05/27 00:54:10;;;;;;;7.00;3.83;;;;;;;11.52;79.40;94807.86;1609073;89;21034;-48
2022/05/27 00:56:40;;;;;;;6.33;3.80;;;;;;;11.50;79.36;94817.94;1609096;89;21533;-49
2022/05/27 00:59:27;;;;;;;4.33;3.65;;;;;;;11.51;79.35;94810.45;1609179;89;21171;-47
2022/05/27 01:01:54;;;;;;;4.60;3.47;;;;;;;11.48;79.14;94806.61;1611661;87;20981;-48
2022/05/27 01:04:21;;;;;;;3.77;3.47;;;;;;;11.40;79.33;94812.23;1609081;89;21016;-48
2022/05/27 01:06:48;;;;;;;9.03;3.60;;;;;;;11.41;79.33;94811.61;1608958;89;20989;-49
2022/05/27 01:09:14;;;;;;;8.08;3.70;;;;;;;11.39;79.37;94814.80;1590905;89;20978;-48
2022/05/27 01:12:00;;;;;;;5.08;3.37;;;;;;;11.42;79.32;94824.95;1609048;88;21520;-48
2022/05/27 01:14:45;;;;;;;6.85;3.52;;;;;;;11.40;79.42;94816.37;1609188;89;20993;-48
2022/05/27 01:17:56;;;;;;;7.17;4.00;;;;;;;11.34;79.50;94805.75;1608599;89;21513;-47
2022/05/27 01:20:57;;;;;;;6.15;3.77;;;;;;;11.28;79.62;94804.81;1608617;87;21021;-48
2022/05/27 01:24:10;;;;;;;6.10;4.47;;;;;;;11.30;79.93;94798.84;1609316;89;21537;-49
2022/05/27 01:26:43;;;;;;;;;;;;;;;11.34;80.10;94795.36;1611395;89;21474;-48
2022/05/27 01:29:39;;;;;;;5.08;4.25;;;;;;;11.41;80.33;94794.48;1609100;89;20178;-47
2022/05/27 01:32:13;;;;;;;4.85;3.83;;;;;;;11.50;80.28;94801.41;1608939;87;21029;-47
2022/05/27 01:35:17;;;;;;;7.42;4.00;;;;;;;11.57;79.94;94803.91;1609371;89;21032;-48
2022/05/27 01:37:55;;;;;;;4.40;3.87;;;;;;;11.62;79.84;94803.34;1609084;89;21036;-47
2022/05/27 01:40:39;;;;;;;6.78;3.92;;;;;;;11.67;79.97;94799.22;1609251;89;21118;-47
2022/05/27 01:43:19;;;;;;;4.60;3.47;;;;;;;11.72;79.67;94804.16;1608915;87;21025;-47
2022/05/27 01:46:16;;;;;;;4.72;3.75;;;;;;;11.75;79.41;94795.73;1608997;89;21484;-47
2022/05/27 01:49:04;;;;;;;5.15;3.67;;;;;;;11.76;79.23;94793.16;1609201;89;21477;-47
2022/05/27 01:51:38;;;;;;;7.30;4.03;;;;;;;11.74;79.10;94799.71;1614113;87;21073;-48
2022/05/27 01:54:11;;;;;;;6.62;4.08;;;;;;;11.70;79.03;94796.33;1608190;89;21155;-47
2022/05/27 01:56:47;;;;;;;6.97;4.35;;;;;;;11.70;78.90;94790.06;1608863;89;21540;-49
2022/05/27 01:59:22;;;;;;;5.22;3.65;;;;;;;11.71;78.68;94792.35;1608983;88;21466;-47
2022/05/27 02:02:10;;;;;;;4.17;3.75;;;;;;;11.72;78.52;94788.37;1608994;89;21125;-47
2022/05/27 02:04:41;;;;;;;6.70;3.87;;;;;;;11.74;78.48;94785.93;1609170;87;21116;-48
2022/05/27 02:07:26;;;;;;;5.62;4.30;;;;;;;11.71;78.61;94795.11;1609023;89;21267;-47
2022/05/27 02:09:57;;;;;;;5.22;3.77;;;;;;;11.69;78.65;94783.77;1607894;89;21025;-48
2022/05/27 02:12:36;;;;;;;6.85;3.60;;;;;;;11.70;78.58;94790.82;1609014;89;20986;-47
2022/05/27 02:15:11;;;;;;;10.63;4.62;;;;;;;11.70;78.62;94781.17;1608933;89;21065;-47
2022/05/27 02:17:49;;;;;;;5.37;4.30;;;;;;;11.68;78.54;94789.13;1608161;87;20981;-47
2022/05/27 02:20:22;;;;;;;5.75;3.62;;;;;;;11.66;78.89;94792.17;1613719;87;21184;-48
2022/05/27 02:22:55;;;;;;;8.43;4.53;;;;;;;11.63;79.33;94793.86;1608952;89;21053;-47
2022/05/27 02:25:26;;;;;;;6.10;4.00;;;;;;;11.63;79.31;94796.62;1608429;89;21524;-46
2022/05/27 02:28:13;;;;;;;7.12;4.53;;;;;;;11.61;79.50;94792.77;1609210;89;20985;-47
2022/05/27 02:30:44;;;;;;;4.62;3.90;;;;;;;11.67;79.97;94790.95;1608486;87;21025;-46
2022/05/27 02:36:05;;;;;;;7.62;3.92;;;;;;;11.85;79.73;94788.27;1609100;89;21441;-47
2022/05/27 02:38:33;;;;;;;4.78;4.00;;;;;;;11.90;79.60;94788.45;1608957;89;20993;-47
2022/05/27 02:41:26;;;;;;;5.90;4.67;;;;;;;11.93;79.32;94790.29;1609199;89;21089;-48
2022/05/27 02:44:07;;;;;;;4.95;3.90;;;;;;;11.93;79.14;94794.42;1608038;89;21517;-48
2022/05/27 02:47:12;;;;;;;5.67;3.60;;;;;;;11.92;78.77;94797.66;1608927;89;21294;-48
2022/05/27 02:49:59;;;;;;;6.28;3.60;;;;;;;11.89;78.75;94795.19;1608907;89;21605;-47
2022/05/27 02:52:49;;;;;;;6.67;4.17;;;;;;;11.80;78.82;94792.41;1608815;89;21005;-48
2022/05/27 02:55:24;;;;;;;5.28;3.90;;;;;;;11.77;79.07;94787.80;1608913;89;21473;-47
2022/05/27 02:57:52;;;;;;;4.72;4.17;;;;;;;11.77;78.92;94791.16;1608935;89;21093;-47
2022/05/27 03:00:25;;;;;;;9.73;4.17;;;;;;;11.72;78.85;94796.64;1608936;89;21259;-47
2022/05/27 03:02:52;;;;;;;5.83;4.65;;;;;;;11.68;78.98;94797.39;1609256;89;21525;-47
2022/05/27 03:05:22;;;;;;;9.03;4.47;;;;;;;11.66;79.28;94793.55;1608927;87;21128;-47
2022/05/27 03:08:24;;;;;;;12.05;4.33;;;;;;;11.68;79.75;94796.02;1609105;89;21120;-47
2022/05/27 03:11:03;;;;;;;12.78;4.40;;;;;;;11.72;79.86;94784.24;1609240;89;21033;-48
2022/05/27 03:14:00;;;;;;;6.17;4.47;;;;;;;11.78;79.83;94789.34;1608985;89;22086;-47
2022/05/27 03:17:05;;;;;;;8.23;4.95;;;;;;;11.83;79.94;94783.82;1608822;89;20997;-48
2022/05/27 03:19:41;;;;;;;6.45;4.72;;;;;;;11.91;79.75;94787.22;1608821;89;21090;-48
2022/05/27 03:22:51;;;;;;;9.13;4.25;;;;;;;11.95;79.73;94780.20;1608947;89;21465;-48
2022/05/27 03:25:29;;;;;;;9.53;4.50;;;;;;;11.98;79.54;94785.58;1612971;86;21035;-47
2022/05/27 03:28:22;;;;;;;7.70;4.70;;;;;;;12.04;79.48;94785.13;1604715;88;21138;-48
2022/05/27 03:30:55;;;;;;;11.88;4.72;;;;;;;12.09;79.36;94791.42;1632149;88;21106;-47
2022/05/27 03:33:39;;;;;;;11.43;4.67;;;;;;;12.09;79.19;94790.04;1632685;88;21038;-47
2022/05/27 03:36:20;;;;;;;6.47;4.65;;;;;;;12.11;79.21;94790.34;1632512;88;20979;-48
2022/05/27 03:39:13;;;;;;;13.98;4.78;;;;;;;12.13;78.81;94787.15;1632128;87;20995;-47
2022/05/27 03:41:54;;;;;;;7.12;4.72;;;;;;;12.13;78.86;94790.69;1632587;88;21193;-47
2022/05/27 03:44:22;;;;;;;18.00;7.80;;;;;;;12.17;79.09;94796.82;1632513;88;21140;-48
2022/05/27 03:46:50;;;;;;;21.40;7.72;;;;;;;12.22;79.12;94797.59;1632924;88;20998;-48
2022/05/27 03:49:18;;;;;;;11.93;6.62;;;;;;;12.24;79.05;94797.89;1632660;88;21077;-48
2022/05/27 03:52:05;;;;;;;25.90;7.12;;;;;;;12.25;79.12;94795.30;1632618;88;21027;-48
2022/05/27 03:54:31;;;;;;;13.05;6.90;;;;;;;12.27;79.13;94785.20;1632599;88;21229;-47
2022/05/27 03:56:58;;;;;;;10.35;6.03;;;;;;;12.37;79.13;94790.27;1632544;88;21566;-48
2022/05/27 03:59:26;;;;;;;8.08;5.87;;;;;;;12.48;78.83;94789.83;1632622;88;21112;-47
2022/05/27 04:01:54;;;;;;;8.55;5.08;;;;;;;12.50;78.58;94786.78;1632573;88;21023;-47
2022/05/27 04:04:24;;;;;;;7.92;5.03;;;;;;;12.50;78.42;94789.53;1632617;86;21090;-48
2022/05/27 04:06:50;;;;;;;6.83;4.42;;;;;;;12.51;78.22;94794.42;1632547;86;21942;-48
2022/05/27 04:09:18;;;;;;;11.40;5.10;;;;;;;12.50;78.06;94788.16;1605218;88;21027;-48
2022/05/27 04:11:45;;;;;;;9.68;5.42;;;;;;;12.51;78.05;94796.59;1632895;88;21086;-48
2022/05/27 04:14:11;;;;;;;6.62;4.55;;;;;;;12.54;78.27;94790.15;1584517;88;21038;-47
2022/05/27 04:16:38;;;;;;;5.97;4.78;;;;;;;12.59;78.05;94787.55;1633079;88;20990;-47
2022/05/27 04:19:05;;;;;;;8.35;4.67;;;;;;;12.63;77.87;94780.48;1632852;88;21439;-47
2022/05/27 04:21:33;;;;;;;9.75;5.58;;;;;;;12.64;77.72;94794.44;1632641;88;21047;-47
2022/05/27 04:24:01;;;;;;;7.83;4.92;;;;;;;12.68;77.83;94793.06;1632653;88;21042;-48
2022/05/27 04:26:27;;;;;;;9.55;4.60;;;;;;;12.74;77.51;94791.22;1632777;88;21023;-48
2022/05/27 04:28:54;;;;;;;8.88;4.75;;;;;;;12.77;77.54;94796.45;1632899;88;21502;-50
2022/05/27 04:31:21;;;;;;;11.65;5.65;;;;;;;12.79;77.53;94790.63;1632844;88;21570;-46
2022/05/27 04:33:48;;;;;;;7.28;5.17;;;;;;;12.83;77.66;94791.84;1632745;88;20999;-47
2022/05/27 04:36:15;;;;;;;11.70;5.30;;;;;;;12.89;77.51;94788.63;1632685;88;20990;-46
2022/05/27 04:38:43;;;;;;;8.80;5.50;;;;;;;12.97;77.47;94789.88;1632735;88;21035;-45
2022/05/27 04:41:09;;;;;;;18.07;5.53;;;;;;;13.11;77.15;94789.26;1632713;86;21186;-47
2022/05/27 04:43:37;;;;;;;12.47;5.25;;;;;;;13.23;76.46;94782.81;1632685;88;21242;-46
2022/05/27 04:46:04;;;;;;;11.70;5.62;;;;;;;13.31;76.05;94779.86;1632692;88;20983;-46
2022/05/27 04:48:31;;;;;;;11.12;5.47;;;;;;;13.42;75.82;94788.45;1584615;88;21030;-47
2022/05/27 04:50:58;;;;;;;13.45;8.55;;;;;;;13.52;75.38;94777.51;1605209;88;21223;-46
2022/05/27 04:53:26;;;;;;;9.80;5.20;;;;;;;13.63;74.91;94779.17;1605896;88;21110;-46
2022/05/27 04:55:52;;;;;;;16.50;11.38;;;;;;;13.67;74.39;94779.77;1632737;88;21149;-47
2022/05/27 04:58:19;;;;;;;11.80;9.45;;;;;;;13.71;73.71;94776.22;1632692;88;21129;-47
2022/05/27 05:00:48;;;;;;;8.13;5.25;;;;;;;13.71;73.14;94769.31;1632729;88;21039;-48
2022/05/27 05:03:15;;;;;;;7.78;4.97;;;;;;;13.71;73.03;94774.84;1633251;88;21003;-46
2022/05/27 05:05:43;;;;;;;10.30;5.65;;;;;;;13.72;73.17;94766.09;1632678;86;21106;-47
2022/05/27 05:08:28;;;;;;;6.83;5.08;;;;;;;13.75;73.09;94772.06;1605349;88;21113;-47
2022/05/27 05:10:57;;;;;;;14.93;5.05;;;;;;;13.78;73.15;94764.84;1632716;88;20987;-48
2022/05/27 05:13:23;;;;;;;9.58;4.45;;;;;;;13.86;73.24;94764.65;1605168;88;21011;-47
2022/05/27 05:15:50;;;;;;;17.82;4.67;;;;;;;14.01;72.92;94754.44;1584529;88;21038;-47
2022/05/27 05:18:18;;;;;;;7.40;6.08;;;;;;;14.19;72.43;94759.91;1632872;86;20999;-48
2022/05/27 05:20:46;;;;;;;6.15;5.00;;;;;;;14.34;71.52;94752.45;1632628;88;21243;-47
2022/05/27 05:23:12;;;;;;;8.85;5.92;;;;;;;14.41;71.03;94752.08;1632674;88;21576;-53
2022/05/27 05:25:39;;;;;;;13.60;4.80;;;;;;;14.45;70.60;94750.04;1632489;88;21082;-48
2022/05/27 05:28:06;;;;;;;6.33;4.40;;;;;;;14.48;70.54;94746.33;1632006;88;21019;-48
2022/05/27 05:30:34;;;;;;;6.53;4.30;;;;;;;14.58;70.44;94747.81;1631871;87;21082;-49
2022/05/27 05:33:00;;;;;;;10.10;4.83;;;;;;;14.64;70.15;94736.84;1633843;86;21234;-49
2022/05/27 05:35:27;;;;;;;6.58;5.10;;;;;;;14.66;69.92;94739.91;1636137;87;21685;-47
2022/05/27 05:37:53;;;;;;;9.40;4.30;;;;;;;14.72;69.83;94738.00;1627499;87;21018;-48
2022/05/27 05:40:20;;;;;;;11.33;5.97;;;;;;;14.79;69.54;94737.02;1638382;86;21521;-47
2022/05/27 05:42:47;;;;;;;11.83;5.15;;;;;;;14.90;69.21;94724.78;1602101;87;21102;-48
2022/05/27 05:45:17;;;;;;;9.65;5.00;;;;;;;14.99;69.02;94726.71;1631109;87;21288;-47
2022/05/27 05:47:43;;;;;;;8.83;3.83;;;;;;;15.08;68.70;94730.77;1630195;86;21431;-48
2022/05/27 05:50:13;;;;;;;18.60;4.00;;;;;;;15.21;68.36;94730.62;1693029;83;21483;-49
2022/05/27 05:52:41;;;;;;;6.55;3.30;;;;;;;15.34;67.80;94720.06;1698460;83;20998;-50
2022/05/27 05:55:09;;;;;;;8.30;4.10;;;;;;;15.34;67.30;94717.29;1693157;83;21101;-49
2022/05/27 05:57:41;;;;;;;6.85;4.10;;;;;;;15.30;67.60;94709.80;1708011;83;21023;-51
2022/05/27 06:00:11;;;;;;;7.08;3.70;;;;;;;15.36;67.84;94707.88;1683370;83;28279;-50
2022/05/27 06:02:41;;;;;;;6.87;4.80;;;;;;;15.48;67.31;94716.52;1686664;83;21014;-50
2022/05/27 06:05:09;;;;;;;9.23;4.03;;;;;;;15.55;66.64;94713.35;1661697;83;21109;-50
2022/05/27 06:07:36;;;;;;;6.42;3.77;;;;;;;15.56;66.31;94703.79;1686804;83;20956;-52
2022/05/27 06:10:03;;;;;;;5.10;3.62;;;;;;;15.52;66.47;94711.55;1655758;85;21108;-49
2022/05/27 06:12:33;;;;;;;12.15;4.45;;;;;;;15.50;66.48;94708.48;1695577;83;22204;-49
2022/05/27 06:15:00;;;;;;;11.63;4.83;;;;;;;15.53;66.65;94711.69;1686376;83;21069;-50
2022/05/27 06:17:28;;;;;;;15.40;4.28;;;;;;;15.53;66.58;94701.98;1668839;84;21104;-51
2022/05/27 06:19:55;;;;;;;8.88;3.70;;;;;;;15.55;66.44;94689.78;1684623;83;21189;-48
2022/05/27 06:22:22;;;;;;;9.28;4.05;;;;;;;15.71;66.34;94689.28;1674788;83;21047;-50
2022/05/27 06:24:49;;;;;;;8.98;5.78;;;;;;;15.90;66.31;94687.80;1675181;83;22260;-51
2022/05/27 06:27:15;;;;;;;3.98;3.20;;;;;;;16.11;66.14;94682.42;1677990;83;20999;-49
2022/05/27 06:35:12;;;;;;;5.03;3.20;;;;;;;16.78;65.38;94678.66;1677102;83;21303;-51
2022/05/27 06:37:39;;;;;;;6.75;3.05;;;;;;;16.93;64.55;94668.18;1653822;84;21076;-50
2022/05/27 06:40:09;;;;;;;5.47;3.10;;;;;;;17.07;64.10;94661.76;1675498;83;21418;-48
2022/05/27 06:42:37;;;;;;;12.73;3.27;;;;;;;17.27;63.23;94657.52;1657289;83;21062;-51
2022/05/27 06:45:08;;;;;;;6.17;2.80;;;;;;;17.51;62.46;94651.69;1677322;83;22151;-49
2022/05/27 06:47:36;;;;;;;5.50;2.83;;;;;;;17.75;61.44;94654.28;1642047;85;21226;-52
2022/05/27 06:50:04;;;;;;;4.65;3.00;;;;;;;17.99;60.77;94643.55;1623167;86;21493;-54
2022/05/27 06:52:31;;;;;;;5.90;3.20;;;;;;;18.18;59.57;94641.14;1623862;86;21025;-53
2022/05/27 06:54:59;;;;;;;3.27;2.40;;;;;;;18.26;59.77;94632.56;1624429;85;37771;-51
2022/05/27 06:57:26;;;;;;;7.25;2.50;;;;;;;18.33;59.58;94625.17;1651310;85;21592;-50
2022/05/27 06:59:53;;;;;;;4.78;2.80;;;;;;;18.42;58.97;94620.77;1652262;85;21983;-50
2022/05/27 07:02:22;;;;;;;3.12;2.42;;;;;;;18.55;58.54;94621.08;1653068;85;21013;-54
2022/05/27 07:04:49;;;;;;;3.98;2.37;;;;;;;18.72;58.46;94612.14;1652607;85;21062;-54
2022/05/27 07:07:17;;;;;;;4.70;2.02;;;;;;;18.89;57.08;94608.75;1629032;86;21006;-51
2022/05/27 07:09:46;;;;;;;3.75;2.40;;;;;;;19.05;57.47;94612.19;1629620;85;21009;-49
2022/05/27 07:12:12;;;;;;;6.60;2.50;;;;;;;19.22;57.86;94607.41;1650077;84;21099;-56
2022/05/27 07:14:39;;;;;;;6.53;2.17;;;;;;;19.44;56.88;94601.09;1652275;85;21107;-53
2022/05/27 07:17:07;;;;;;;6.25;1.90;;;;;;;19.61;54.32;94598.43;1649104;85;21068;-52
2022/05/27 07:19:34;;;;;;;3.67;1.90;;;;;;;19.76;50.90;94598.90;1650814;85;21065;-50
2022/05/27 07:22:01;;;;;;;5.85;1.67;;;;;;;19.88;49.78;94596.22;1649786;85;21032;-50
2022/05/27 07:24:28;;;;;;;24.80;15.18;;;;;;;20.01;48.81;94596.45;1653823;85;21105;-53
2022/05/27 07:26:55;;;;;;;13.13;3.50;;;;;;;20.19;48.39;94595.27;1677082;83;21007;-55
2022/05/27 07:29:22;;;;;;;6.17;1.90;;;;;;;20.36;46.48;94593.84;1655800;83;21069;-53
2022/05/27 07:31:48;;;;;;;15.70;4.83;;;;;;;20.46;44.49;94588.84;1675918;83;21552;-51
2022/05/27 07:34:17;;;;;;;4.10;2.15;;;;;;;20.53;45.39;94591.73;1628620;85;21004;-51
2022/05/27 07:36:44;;;;;;;6.87;1.62;;;;;;;20.62;43.88;94586.61;1623622;86;22194;-50
2022/05/27 07:39:10;;;;;;;10.15;1.65;;;;;;;20.70;43.20;94584.03;1620583;86;21080;-50
2022/05/27 07:41:37;;;;;;;7.87;2.35;;;;;;;20.74;42.06;94587.31;1623858;86;22148;-50
2022/05/27 07:44:05;;;;;;;8.45;1.87;;;;;;;20.74;42.74;94584.51;1644534;85;21069;-51
2022/05/27 07:46:35;;;;;;;13.20;1.85;;;;;;;20.72;42.12;94585.67;1624055;86;21470;-51
2022/05/27 07:49:07;;;;;;;2.65;1.30;;;;;;;20.69;41.94;94590.25;1624220;86;21237;-52
2022/05/27 07:51:34;;;;;;;24.50;2.80;;;;;;;20.70;41.26;94584.03;1651749;84;20996;-53
2022/05/27 07:54:03;;;;;;;3.50;1.60;;;;;;;20.69;41.33;94590.88;1677774;82;21018;-48
2022/05/27 07:56:30;;;;;;;2.80;1.35;;;;;;;20.69;41.56;94581.86;1677878;83;21659;-54
2022/05/27 07:58:57;;;;;;;3.25;1.65;;;;;;;20.75;41.46;94570.65;1658255;83;21049;-50
2022/05/27 08:01:25;;;;;;;8.30;6.65;;;;;;;20.79;42.17;94573.30;1676617;83;21065;-49
2022/05/27 08:03:52;;;;;;;13.78;2.87;;;;;;;20.85;40.62;94576.07;1640911;85;21602;-52
2022/05/27 08:06:19;;;;;;;13.05;8.18;;;;;;;20.88;41.76;94565.24;1677109;83;21019;-50
2022/05/27 08:08:47;;;;;;;3.27;2.50;;;;;;;20.96;41.49;94564.83;1675965;83;21121;-53
2022/05/27 08:11:15;;;;;;;8.20;3.08;;;;;;;21.04;41.61;94577.73;1676289;83;21073;-49
2022/05/27 08:13:42;;;;;;;9.08;2.35;;;;;;;21.08;40.97;94566.28;1679473;83;21912;-51
2022/05/27 08:16:09;;;;;;;12.50;1.92;;;;;;;21.12;40.84;94566.09;1689111;83;21074;-55
2022/05/27 08:18:37;;;;;;;9.13;1.47;;;;;;;21.18;40.74;94559.06;1687233;83;21038;-51
2022/05/27 08:21:04;;;;;;;8.13;2.12;;;;;;;21.25;40.91;94555.07;1680055;82;21595;-50
2022/05/27 08:23:31;;;;;;;9.08;2.35;;;;;;;21.30;41.56;94558.45;1688890;83;21100;-56
2022/05/27 08:26:01;;;;;;;9.78;2.00;;;;;;;21.34;40.21;94553.98;1688006;83;21151;-55
2022/05/27 08:28:28;;;;;;;13.85;1.60;;;;;;;21.36;41.17;94557.02;1688561;83;21086;-54
2022/05/27 08:30:59;;;;;;;8.25;1.65;;;;;;;21.40;40.48;94545.66;1681674;83;21117;-51
2022/05/27 08:38:45;;;;;;;10.13;1.70;;;;;;;21.22;39.77;94562.34;1696370;82;21567;-55
2022/05/27 08:41:33;;;;;;;8.28;1.47;;;;;;;21.21;39.91;94554.59;1688701;82;21093;-56
2022/05/27 08:44:38;;;;;;;12.78;1.90;;;;;;;21.25;39.83;94532.69;1685855;81;21109;-54
2022/05/27 08:47:31;;;;;;;5.20;1.50;;;;;;;21.24;40.22;94537.39;1685127;83;21008;-56
2022/05/27 08:50:30;;;;;;;11.05;1.50;;;;;;;21.31;40.16;94538.23;1679551;83;21307;-54
2022/05/27 08:53:07;;;;;;;4.90;1.40;;;;;;;21.37;39.85;94534.74;1672689;84;21127;-53
2022/05/27 09:01:36;;;;;;;5.37;1.70;;;;;;;21.49;39.46;94531.31;1682251;83;21440;-50
2022/05/27 09:04:22;;;;;;;3.08;1.30;;;;;;;21.52;39.15;94523.30;1664959;84;21464;-54
2022/05/27 09:06:52;;;;;;;7.58;1.35;;;;;;;21.52;39.44;94521.13;1663033;84;21225;-49
2022/05/27 09:09:27;;;;;;;2.62;1.10;;;;;;;21.55;39.65;94535.47;1696962;83;21045;-53
2022/05/27 09:12:37;;;;;;;4.62;1.17;;;;;;;21.63;39.32;94532.26;1684785;83;21020;-48
2022/05/27 09:15:33;;;;;;;10.78;1.07;;;;;;;21.64;39.90;94516.31;1608604;87;21114;-52
2022/05/27 09:18:25;;;;;;;4.53;1.72;;;;;;;21.65;39.51;94514.29;1684705;83;21029;-50
2022/05/27 09:21:31;;;;;;;7.05;1.80;;;;;;;21.66;38.70;94500.41;1658372;85;21145;-53
2022/05/27 09:24:15;;;;;;;4.05;1.30;;;;;;;21.66;39.44;94501.14;1686084;83;21483;-54
2022/05/27 09:27:01;;;;;;;8.35;1.20;;;;;;;21.64;39.31;94498.77;1682852;83;21013;-53
2022/05/27 09:29:39;;;;;;;7.85;1.70;;;;;;;21.68;39.19;94492.23;1679482;83;21018;-50
2022/05/27 09:32:14;;;;;;;3.33;1.10;;;;;;;21.70;39.39;94486.86;1681303;83;20991;-52
2022/05/27 09:34:42;;;;;;;2.37;1.00;;;;;;;21.73;39.46;94480.98;1648997;83;21526;-51
2022/05/27 09:37:11;;;;;;;9.60;1.20;;;;;;;21.80;40.28;94485.23;1684223;83;21038;-50
2022/05/27 09:39:38;;;;;;;2.40;1.07;;;;;;;21.93;39.61;94476.92;1708108;81;21474;-51
2022/05/27 09:42:22;;;;;;;11.28;2.37;;;;;;;22.02;39.14;94476.58;1679560;83;21029;-52
2022/05/27 09:44:52;;;;;;;3.00;1.35;;;;;;;22.07;39.60;94470.25;1665018;84;21098;-52
2022/05/27 09:47:19;;;;;;;7.30;1.05;;;;;;;22.11;38.70;94467.16;1695344;83;21227;-52
2022/05/27 09:49:55;;;;;;;6.92;1.42;;;;;;;22.13;39.08;94480.73;1632485;86;21692;-52
2022/05/27 09:52:22;;;;;;;4.08;2.05;;;;;;;22.12;38.42;94475.68;1687755;83;21457;-52
2022/05/27 09:54:59;;;;;;;7.25;1.12;;;;;;;22.08;38.80;94468.96;1686922;82;21054;-52
2022/05/27 09:57:29;;;;;;;10.72;1.60;;;;;;;22.08;39.51;94467.56;1692787;83;21113;-51
2022/05/27 10:00:02;;;;;;;10.55;1.55;;;;;;;22.12;39.52;94451.20;1693827;83;21862;-51
2022/05/27 10:02:36;;;;;;;6.45;1.02;;;;;;;22.14;39.37;94451.42;1695355;83;21052;-51
2022/05/27 10:05:07;;;;;;;15.23;1.50;;;;;;;22.16;39.04;94445.30;1681163;83;20993;-51
2022/05/27 10:07:44;;;;;;;5.87;2.58;;;;;;;22.18;39.19;94458.91;1653869;84;21212;-52
2022/05/27 10:10:28;;;;;;;8.15;1.07;;;;;;;22.24;38.87;94449.00;1679286;83;21006;-53
2022/05/27 10:13:15;;;;;;;10.28;1.40;;;;;;;22.27;38.36;94458.52;1645273;85;21186;-53
2022/05/27 10:15:43;;;;;;;17.42;1.57;;;;;;;22.25;39.20;94456.89;1678325;84;21015;-51
2022/05/27 10:18:22;;;;;;;9.40;1.35;;;;;;;22.30;39.42;94457.46;1656666;85;21599;-51
2022/05/27 10:21:00;;;;;;;4.28;1.25;;;;;;;22.32;38.97;94456.28;1657914;86;21079;-51
2022/05/27 10:23:33;;;;;;;4.22;1.30;;;;;;;22.37;39.10;94442.85;1610544;87;21047;-52
2022/05/27 10:26:00;;;;;;;17.15;2.35;;;;;;;22.52;39.11;94445.98;1628562;86;21647;-52
2022/05/27 10:28:29;;;;;;;3.42;1.20;;;;;;;22.66;38.51;94436.32;1608939;87;21023;-53
2022/05/27 10:31:06;;;;;;;5.28;1.25;;;;;;;22.74;38.42;94451.27;1624298;86;21026;-49
2022/05/27 10:33:41;;;;;;;11.00;1.25;;;;;;;22.82;37.87;94439.52;1606376;86;21090;-50
2022/05/27 10:36:40;;;;;;;7.65;1.50;;;;;;;22.97;38.37;94434.18;1668831;84;21033;-50
2022/05/27 10:39:14;;;;;;;5.72;1.75;;;;;;;23.11;38.65;94425.95;1674615;83;21380;-49
2022/05/27 10:42:07;;;;;;;7.47;1.52;;;;;;;23.40;37.67;94426.97;1686134;83;21462;-50
2022/05/27 10:44:45;;;;;;;1.75;1.20;;;;;;;23.62;36.98;94432.94;1676460;83;21007;-49
2022/05/27 10:47:45;;;;;;;6.83;1.40;;;;;;;23.77;37.15;94424.71;1671958;85;21093;-52
2022/05/27 10:50:23;;;;;;;7.28;1.60;;;;;;;23.91;36.98;94436.09;1623721;88;21072;-52
2022/05/27 10:53:39;;;;;;;14.30;1.62;;;;;;;24.02;36.78;94430.25;1620779;88;21608;-49
2022/05/27 11:03:18;;;;;;;23.80;3.10;;;;;;;24.21;37.23;94432.28;1677013;83;21207;-52
2022/05/27 11:06:12;;;;;;;4.70;1.57;;;;;;;24.28;37.31;94417.55;1681266;83;21589;-51
2022/05/27 11:08:47;;;;;;;9.13;1.65;;;;;;;24.47;37.54;94421.73;1682788;83;21887;-52
2022/05/27 11:11:43;;;;;;;11.73;1.98;;;;;;;24.53;37.53;94437.86;1688477;83;21065;-51
2022/05/27 11:17:49;;;;;;;6.70;3.17;;;;;;;24.44;37.51;94406.59;1680743;83;21073;-52
2022/05/27 11:20:51;;;;;;;6.15;1.77;;;;;;;24.70;37.04;94414.95;1693029;83;21491;-51
2022/05/27 11:23:55;;;;;;;10.95;3.37;;;;;;;25.02;35.93;94415.47;1680699;83;21120;-50
2022/05/27 11:26:43;;;;;;;21.52;2.02;;;;;;;25.19;35.80;94403.17;1690496;82;21037;-52
2022/05/27 11:29:57;;;;;;;5.85;1.30;;;;;;;25.43;34.96;94404.20;1678578;83;21073;-52
2022/05/27 11:32:46;;;;;;;5.62;1.27;;;;;;;25.47;35.35;94383.50;1683462;83;20992;-52
2022/05/27 11:35:36;;;;;;;5.95;1.10;;;;;;;25.75;34.94;94389.88;1680074;83;21034;-52
2022/05/27 11:38:32;;;;;;;9.25;1.37;;;;;;;26.03;34.62;94374.36;1677589;83;21881;-55
2022/05/27 11:41:27;;;;;;;8.93;1.37;;;;;;;26.34;34.28;94380.97;1633403;85;21533;-54
2022/05/27 11:44:29;;;;;;;19.73;1.85;;;;;;;26.47;33.18;94389.30;1645954;85;21513;-53
2022/05/27 11:47:28;;;;;;;4.40;1.17;;;;;;;26.62;33.84;94370.27;1645817;85;21028;-52
2022/05/27 11:50:16;;;;;;;4.70;1.45;;;;;;;26.70;33.10;94381.67;1647812;85;21514;-50
2022/05/27 11:53:05;;;;;;;9.78;1.17;;;;;;;26.46;33.78;94382.16;1727163;81;21273;-48
2022/05/27 11:55:50;;;;;;;4.25;1.30;;;;;;;25.94;33.63;94375.63;1691139;83;21029;-50
2022/05/27 11:59:00;;;;;;;4.10;0.93;;;;;;;25.65;34.79;94378.27;1642484;85;21062;-52
2022/05/27 12:01:47;;;;;;;2.77;1.00;;;;;;;25.46;35.09;94367.91;1660291;83;21536;-53
2022/05/27 12:04:49;;;;;;;4.45;1.02;;;;;;;25.29;36.16;94384.49;1682642;83;21089;-55
2022/05/27 12:07:48;;;;;;;4.78;0.90;;;;;;;25.33;35.44;94364.50;1682698;83;22037;-53
2022/05/27 12:10:26;;;;;;;5.80;1.47;;;;;;;25.54;35.49;94366.65;1688142;83;21011;-52
2022/05/27 12:13:19;;;;;;;31.82;15.83;;;;;;;25.97;35.32;94354.78;1680471;83;21041;-52
2022/05/27 12:16:04;;;;;;;12.50;5.72;;;;;;;26.32;34.94;94349.02;1694496;83;21036;-50
2022/05/27 12:18:53;;;;;;;6.00;2.20;;;;;;;26.39;34.52;94356.09;1688429;83;20984;-51
2022/05/27 12:21:24;;;;;;;2.47;1.05;;;;;;;26.35;34.47;94364.17;1691832;82;21179;-51
2022/05/27 12:23:55;;;;;;;1.95;1.20;;;;;;;26.11;34.76;94346.29;1665526;83;21083;-50
2022/05/27 12:26:30;;;;;;;4.17;1.20;;;;;;;25.99;35.50;94350.77;1683501;83;21065;-51
2022/05/27 12:28:58;;;;;;;7.08;1.32;;;;;;;26.29;35.41;94348.72;1693748;83;21050;-52
2022/05/27 12:31:27;;;;;;;2.58;1.10;;;;;;;26.65;34.83;94355.06;1673933;83;20988;-52
2022/05/27 12:33:54;;;;;;;6.65;1.20;;;;;;;26.95;34.22;94340.33;1653617;85;22315;-49
2022/05/27 12:36:28;;;;;;;2.80;1.20;;;;;;;27.20;33.94;94373.78;1691544;83;21295;-57
2022/05/27 12:38:57;;;;;;;3.90;0.95;;;;;;;27.51;33.02;94357.55;1648816;85;21014;-49
2022/05/27 12:41:40;;;;;;;6.75;1.95;;;;;;;27.66;32.69;94337.10;1692268;82;21044;-54